Time;durP1;ratioP1;P1;durP2;ratioP2;P2;SDS_P1;SDS_P2;PMS_P1;PMS_P2;Temp;Humidity;BMP_temperature;BMP_pressure;BME280_temperature;BME280_humidity;BME280_pressure;Samples;Min_cycle;Max_cycle;Signal;HPM_P1;HPM_P2
2022/03/07 00:02:03;;;;;;;20.92;13.05;;;4.20;73.10;;;;;;5130239;28;20479;-78
2022/03/07 00:04:29;;;;;;;23.05;13.55;;;4.20;73.30;;;;;;5128050;27;20064;-78
2022/03/07 00:06:55;;;;;;;20.60;12.40;;;4.20;73.20;;;;;;5130386;27;20031;-78
2022/03/07 00:09:20;;;;;;;21.33;13.15;;;4.10;73.10;;;;;;5130270;27;20026;-78
2022/03/07 00:11:46;;;;;;;22.13;13.18;;;4.10;73.20;;;;;;5133566;27;20027;-78
2022/03/07 00:14:12;;;;;;;21.17;12.48;;;4.00;73.20;;;;;;5133513;27;20019;-78
2022/03/07 00:16:38;;;;;;;20.00;12.85;;;4.00;73.30;;;;;;5134067;27;20061;-78
2022/03/07 00:19:04;;;;;;;21.98;12.82;;;4.00;73.60;;;;;;5132265;27;20030;-78
2022/03/07 00:21:29;;;;;;;19.45;11.85;;;4.00;73.60;;;;;;5117698;27;20036;-77
2022/03/07 00:23:55;;;;;;;21.02;13.27;;;4.00;74.60;;;;;;5117032;27;20023;-77
2022/03/07 00:26:21;;;;;;;22.45;13.38;;;4.00;73.70;;;;;;5133690;27;20445;-78
2022/03/07 00:28:48;;;;;;;25.45;14.68;;;3.90;73.60;;;;;;5133519;27;20023;-77
2022/03/07 00:31:15;;;;;;;24.10;14.35;;;3.90;74.10;;;;;;5133293;27;20084;-77
2022/03/07 00:33:43;;;;;;;20.75;13.60;;;3.90;74.50;;;;;;5133540;27;20487;-77
2022/03/07 00:36:09;;;;;;;21.58;12.95;;;3.90;74.40;;;;;;5134391;27;20030;-78
2022/03/07 00:38:34;;;;;;;19.70;11.68;;;3.80;74.40;;;;;;5134540;27;20027;-78
2022/03/07 00:41:01;;;;;;;23.15;13.85;;;3.80;74.90;;;;;;5133434;27;20058;-78
2022/03/07 00:43:27;;;;;;;20.52;12.10;;;3.80;74.80;;;;;;5133254;27;20060;-79
2022/03/07 00:45:53;;;;;;;22.65;13.45;;;3.80;74.70;;;;;;5133306;27;20043;-78
2022/03/07 00:48:19;;;;;;;24.52;14.45;;;3.80;74.70;;;;;;5132825;27;20030;-79
2022/03/07 00:50:51;;;;;;;20.45;12.90;;;3.80;75.10;;;;;;5135347;27;20058;-77
2022/03/07 00:53:22;;;;;;;20.52;12.30;;;3.70;74.60;;;;;;5131678;27;20018;-77
2022/03/07 00:55:48;;;;;;;21.63;12.82;;;3.70;75.00;;;;;;5133365;27;20020;-79
2022/03/07 00:58:14;;;;;;;18.25;11.93;;;3.70;75.10;;;;;;5132935;27;20031;-79
2022/03/07 01:00:40;;;;;;;24.85;13.40;;;3.80;75.00;;;;;;5132827;27;20547;-78
2022/03/07 01:03:08;;;;;;;23.63;13.80;;;3.70;74.60;;;;;;5134046;27;20395;-77
2022/03/07 01:05:34;;;;;;;22.25;13.38;;;3.70;75.00;;;;;;5133680;27;20027;-78
2022/03/07 01:08:00;;;;;;;20.92;13.63;;;3.70;75.70;;;;;;5132909;27;20035;-78
2022/03/07 01:10:26;;;;;;;24.40;13.88;;;3.70;75.30;;;;;;5113220;27;20019;-77
2022/03/07 01:12:53;;;;;;;18.10;11.55;;;3.70;75.10;;;;;;5132931;27;20027;-77
2022/03/07 01:15:19;;;;;;;19.30;11.90;;;3.70;75.10;;;;;;5132800;27;20024;-79
2022/03/07 01:17:44;;;;;;;21.55;13.30;;;3.60;75.20;;;;;;5134529;27;20027;-80
2022/03/07 01:20:11;;;;;;;22.58;13.70;;;3.60;75.90;;;;;;5132420;27;20405;-77
2022/03/07 01:22:37;;;;;;;20.05;12.85;;;3.60;75.50;;;;;;5130958;27;20110;-78
2022/03/07 01:25:05;;;;;;;22.77;13.65;;;3.60;76.00;;;;;;5132314;27;20027;-78
2022/03/07 01:27:31;;;;;;;20.75;12.77;;;3.60;75.60;;;;;;5116345;27;20028;-78
2022/03/07 01:29:56;;;;;;;23.02;13.95;;;3.60;75.50;;;;;;5134874;27;20122;-78
2022/03/07 01:32:22;;;;;;;23.83;13.40;;;3.60;75.70;;;;;;5113933;27;20440;-76
2022/03/07 01:34:48;;;;;;;20.30;13.23;;;3.60;75.90;;;;;;5132725;27;20084;-78
2022/03/07 01:37:14;;;;;;;23.48;13.70;;;3.60;75.60;;;;;;5131166;27;20035;-76
2022/03/07 01:39:40;;;;;;;20.95;12.85;;;3.60;76.50;;;;;;5132675;27;20396;-77
2022/03/07 01:42:06;;;;;;;24.48;14.10;;;3.60;76.00;;;;;;5133877;27;20031;-76
2022/03/07 01:44:32;;;;;;;20.17;12.30;;;3.50;76.30;;;;;;5133189;27;20100;-77
2022/03/07 01:46:58;;;;;;;21.42;13.38;;;3.60;75.90;;;;;;5131983;27;20023;-77
2022/03/07 01:49:26;;;;;;;20.25;13.20;;;3.50;75.90;;;;;;5132375;27;20098;-78
2022/03/07 01:51:53;;;;;;;24.17;14.45;;;3.50;75.80;;;;;;5132358;27;20041;-78
2022/03/07 01:54:20;;;;;;;23.58;14.48;;;3.40;76.20;;;;;;5113924;27;20031;-78
2022/03/07 01:56:47;;;;;;;21.63;12.85;;;3.40;76.20;;;;;;5134476;27;20023;-78
2022/03/07 01:59:14;;;;;;;20.55;12.50;;;3.40;76.50;;;;;;5113734;27;20023;-78
2022/03/07 02:01:40;;;;;;;20.02;12.60;;;3.40;76.20;;;;;;5130313;27;20035;-77
2022/03/07 02:04:07;;;;;;;17.73;12.70;;;3.30;76.10;;;;;;5132034;27;20022;-77
2022/03/07 02:06:33;;;;;;;20.42;13.13;;;3.30;76.00;;;;;;5132106;27;20024;-77
2022/03/07 02:08:59;;;;;;;22.02;12.73;;;3.30;76.60;;;;;;5134287;27;20019;-77
2022/03/07 02:11:25;;;;;;;20.83;12.73;;;3.30;76.70;;;;;;5131958;27;20475;-76
2022/03/07 02:13:52;;;;;;;19.42;12.52;;;3.30;76.40;;;;;;5131818;27;20053;-77
2022/03/07 02:16:19;;;;;;;18.80;11.85;;;3.30;76.50;;;;;;5130104;27;20035;-77
2022/03/07 02:18:45;;;;;;;20.65;12.82;;;3.20;76.30;;;;;;5131784;27;20080;-77
2022/03/07 02:21:14;;;;;;;19.73;11.75;;;3.20;76.50;;;;;;5132577;27;20023;-77
2022/03/07 02:23:40;;;;;;;20.83;13.15;;;3.20;76.60;;;;;;5133738;27;20035;-77
2022/03/07 02:26:17;;;;;;;19.63;11.80;;;3.20;77.10;;;;;;5131704;27;20084;-76
2022/03/07 02:28:45;;;;;;;19.58;12.40;;;3.20;77.20;;;;;;5131146;27;20068;-77
2022/03/07 02:31:15;;;;;;;21.73;12.55;;;3.20;77.00;;;;;;5131573;27;20015;-78
2022/03/07 02:33:41;;;;;;;19.58;12.68;;;3.20;77.80;;;;;;5113168;27;20027;-77
2022/03/07 02:36:07;;;;;;;19.88;13.02;;;3.20;77.30;;;;;;5132045;27;20048;-78
2022/03/07 02:38:34;;;;;;;21.00;12.95;;;3.10;77.30;;;;;;5132634;27;20019;-77
2022/03/07 02:41:00;;;;;;;20.42;13.00;;;3.10;77.40;;;;;;5129765;27;20011;-78
2022/03/07 02:43:26;;;;;;;19.67;11.75;;;3.10;77.20;;;;;;5131102;27;20020;-78
2022/03/07 02:45:52;;;;;;;18.08;12.48;;;3.10;77.10;;;;;;5112988;27;20043;-78
2022/03/07 02:48:18;;;;;;;19.55;12.07;;;3.10;77.20;;;;;;5131280;27;20023;-78
2022/03/07 02:50:45;;;;;;;22.95;13.65;;;3.10;77.10;;;;;;5115014;28;20059;-77
2022/03/07 02:53:12;;;;;;;17.85;11.35;;;3.10;77.20;;;;;;5131293;27;20027;-78
2022/03/07 02:55:37;;;;;;;17.65;11.85;;;3.00;77.00;;;;;;5129819;27;20468;-78
2022/03/07 02:58:04;;;;;;;18.10;11.35;;;3.00;77.20;;;;;;5130858;27;20031;-78
2022/03/07 03:00:30;;;;;;;16.23;10.70;;;3.00;77.40;;;;;;5112864;28;20027;-78
2022/03/07 03:02:56;;;;;;;18.52;11.32;;;3.00;76.90;;;;;;5128956;27;20045;-77
2022/03/07 03:05:23;;;;;;;21.58;12.18;;;3.00;76.90;;;;;;5130234;27;20123;-78
2022/03/07 03:07:51;;;;;;;18.25;11.65;;;3.00;76.70;;;;;;5130423;27;20027;-78
2022/03/07 03:10:18;;;;;;;20.90;12.55;;;2.90;76.90;;;;;;5130613;28;20804;-78
2022/03/07 03:12:44;;;;;;;18.40;11.75;;;2.90;77.20;;;;;;5130148;27;20037;-78
2022/03/07 03:15:11;;;;;;;18.13;11.65;;;2.90;77.00;;;;;;5131760;27;20031;-77
2022/03/07 03:17:41;;;;;;;18.00;12.13;;;2.90;77.30;;;;;;5131952;27;20407;-77
2022/03/07 03:20:10;;;;;;;20.48;12.23;;;2.90;77.20;;;;;;5128772;27;20061;-77
2022/03/07 03:22:36;;;;;;;19.00;12.38;;;2.90;77.20;;;;;;5130544;28;20053;-77
2022/03/07 03:25:02;;;;;;;16.13;10.98;;;2.90;77.30;;;;;;5112141;28;20488;-77
2022/03/07 03:27:27;;;;;;;17.20;12.27;;;2.90;77.30;;;;;;5130488;27;20020;-77
2022/03/07 03:29:53;;;;;;;18.30;11.73;;;2.80;77.00;;;;;;5132479;27;20011;-77
2022/03/07 03:32:18;;;;;;;18.45;11.43;;;2.80;77.10;;;;;;5130358;27;20485;-77
2022/03/07 03:34:44;;;;;;;18.33;12.23;;;2.80;77.00;;;;;;5110323;27;20071;-77
2022/03/07 03:37:10;;;;;;;22.90;12.93;;;2.80;77.00;;;;;;5130279;27;20423;-77
2022/03/07 03:39:35;;;;;;;16.77;10.82;;;2.70;77.00;;;;;;5130528;27;20016;-77
2022/03/07 03:42:01;;;;;;;17.85;10.93;;;2.70;77.20;;;;;;5113062;28;20031;-76
2022/03/07 03:44:27;;;;;;;20.40;12.32;;;2.70;77.00;;;;;;5130998;27;20130;-76
2022/03/07 03:46:52;;;;;;;20.02;12.45;;;2.70;77.00;;;;;;5113109;27;20396;-76
2022/03/07 03:49:18;;;;;;;19.02;12.20;;;2.70;77.20;;;;;;5134149;27;20027;-76
2022/03/07 03:51:43;;;;;;;20.02;13.38;;;2.70;77.20;;;;;;5134668;27;20038;-78
2022/03/07 03:54:09;;;;;;;16.15;11.23;;;2.70;78.10;;;;;;5135022;27;20023;-77
2022/03/07 03:56:35;;;;;;;19.52;12.27;;;2.60;77.10;;;;;;5116951;27;20038;-77
2022/03/07 03:59:00;;;;;;;18.17;12.02;;;2.60;77.10;;;;;;5132421;27;20076;-78
2022/03/07 04:01:26;;;;;;;20.50;12.25;;;2.60;77.50;;;;;;5133903;27;20031;-77
2022/03/07 04:03:52;;;;;;;19.50;12.10;;;2.50;77.20;;;;;;5115531;27;20494;-77
2022/03/07 04:06:17;;;;;;;17.60;11.38;;;2.50;77.00;;;;;;5133920;27;20035;-77
2022/03/07 04:08:49;;;;;;;17.80;11.85;;;2.50;78.10;;;;;;5136265;27;20027;-79
2022/03/07 04:11:15;;;;;;;21.33;12.70;;;2.50;77.20;;;;;;5115012;27;20396;-78
2022/03/07 04:13:40;;;;;;;18.05;11.95;;;2.50;77.20;;;;;;5132236;27;20015;-79
2022/03/07 04:16:06;;;;;;;20.92;12.77;;;2.50;77.20;;;;;;5133633;27;20087;-78
2022/03/07 04:18:32;;;;;;;18.13;11.60;;;2.50;77.10;;;;;;5115551;27;20380;-78
2022/03/07 04:20:57;;;;;;;16.98;10.20;;;2.40;76.90;;;;;;5135890;27;20493;-78
2022/03/07 04:23:24;;;;;;;18.13;11.25;;;2.40;77.30;;;;;;5115236;27;20043;-77
2022/03/07 04:25:49;;;;;;;14.70;9.52;;;2.40;77.60;;;;;;5133167;27;20114;-78
2022/03/07 04:28:15;;;;;;;16.35;10.38;;;2.40;77.60;;;;;;5115068;27;20115;-78
2022/03/07 04:30:42;;;;;;;17.33;11.05;;;2.40;77.30;;;;;;5134161;27;20106;-78
2022/03/07 04:33:08;;;;;;;16.13;10.48;;;2.40;77.30;;;;;;5116231;27;20031;-78
2022/03/07 04:35:35;;;;;;;14.77;9.45;;;2.40;77.30;;;;;;5116085;27;20100;-77
2022/03/07 04:38:01;;;;;;;17.05;10.40;;;2.40;77.00;;;;;;5131733;27;20035;-78
2022/03/07 04:40:28;;;;;;;14.85;9.75;;;2.30;77.30;;;;;;5133157;27;20462;-78
2022/03/07 04:42:55;;;;;;;15.68;10.52;;;2.40;77.40;;;;;;5114908;27;20137;-76
2022/03/07 04:45:22;;;;;;;18.90;11.50;;;2.40;77.20;;;;;;5114642;27;20051;-78
2022/03/07 04:47:48;;;;;;;17.10;10.10;;;2.40;77.40;;;;;;5135182;27;20041;-78
2022/03/07 04:50:13;;;;;;;18.50;11.63;;;2.40;77.90;;;;;;5133359;27;20098;-78
2022/03/07 04:52:41;;;;;;;17.88;11.63;;;2.30;77.40;;;;;;5131582;27;20476;-77
2022/03/07 04:55:08;;;;;;;18.50;11.50;;;2.30;77.30;;;;;;5132704;27;20019;-78
2022/03/07 04:57:33;;;;;;;18.15;12.05;;;2.30;77.50;;;;;;5114090;27;20126;-77
2022/03/07 04:59:59;;;;;;;17.88;11.55;;;2.30;77.30;;;;;;5134699;27;20445;-78
2022/03/07 05:02:25;;;;;;;18.60;11.40;;;2.20;77.20;;;;;;5114119;27;20088;-78
2022/03/07 05:04:51;;;;;;;17.95;11.88;;;2.20;77.10;;;;;;5132685;27;20027;-77
2022/03/07 05:07:16;;;;;;;18.70;11.55;;;2.20;77.20;;;;;;5132792;27;20027;-77
2022/03/07 05:09:42;;;;;;;20.67;11.98;;;2.20;77.40;;;;;;5132580;27;20391;-78
2022/03/07 05:12:08;;;;;;;15.93;10.95;;;2.20;77.60;;;;;;5115535;27;20030;-79
2022/03/07 05:14:34;;;;;;;17.02;11.27;;;2.10;77.30;;;;;;5134112;27;20168;-79
2022/03/07 05:16:59;;;;;;;17.35;11.25;;;2.10;77.30;;;;;;5130866;27;20543;-79
2022/03/07 05:19:25;;;;;;;18.73;12.35;;;2.10;77.50;;;;;;5113818;27;20054;-79
2022/03/07 05:21:50;;;;;;;16.45;10.45;;;2.00;78.00;;;;;;5132800;27;20075;-79
2022/03/07 05:24:16;;;;;;;18.50;11.30;;;2.00;78.20;;;;;;5113523;27;20023;-79
2022/03/07 05:26:42;;;;;;;19.27;12.02;;;2.00;78.30;;;;;;5134239;27;20079;-79
2022/03/07 05:29:07;;;;;;;18.90;12.48;;;1.90;77.80;;;;;;5113971;27;20027;-78
2022/03/07 05:31:33;;;;;;;19.65;12.57;;;1.90;77.80;;;;;;5130864;27;20030;-78
2022/03/07 05:33:59;;;;;;;20.13;13.30;;;1.90;78.40;;;;;;5132147;27;20023;-78
2022/03/07 05:36:25;;;;;;;20.95;13.73;;;1.80;78.70;;;;;;5132069;27;20443;-78
2022/03/07 05:38:51;;;;;;;19.35;11.77;;;1.90;78.30;;;;;;5115497;27;20038;-78
2022/03/07 05:41:16;;;;;;;19.58;11.75;;;1.80;78.60;;;;;;5132234;27;20083;-79
2022/03/07 05:43:42;;;;;;;17.35;11.55;;;1.90;78.40;;;;;;5113586;27;20027;-76
2022/03/07 05:46:07;;;;;;;19.13;11.88;;;1.80;78.30;;;;;;5131718;27;20041;-75
2022/03/07 05:48:33;;;;;;;16.90;11.07;;;1.80;78.30;;;;;;5131988;27;20483;-77
2022/03/07 05:50:59;;;;;;;18.80;11.85;;;1.80;78.50;;;;;;5134263;27;20095;-78
2022/03/07 05:53:24;;;;;;;18.02;11.13;;;1.80;78.40;;;;;;5131367;27;20031;-79
2022/03/07 05:55:52;;;;;;;18.75;10.68;;;1.80;78.50;;;;;;5113323;27;20120;-77
2022/03/07 05:58:18;;;;;;;14.95;10.38;;;1.80;78.50;;;;;;5130645;27;20023;-78
2022/03/07 06:00:44;;;;;;;16.98;10.95;;;1.70;78.30;;;;;;5131260;27;20074;-78
2022/03/07 06:03:09;;;;;;;15.40;9.57;;;1.70;78.40;;;;;;5132601;27;20107;-78
2022/03/07 06:05:35;;;;;;;16.42;10.60;;;1.70;78.60;;;;;;5113669;27;20422;-78
2022/03/07 06:08:02;;;;;;;16.63;11.23;;;1.70;78.40;;;;;;5131462;27;20863;-78
2022/03/07 06:10:28;;;;;;;15.98;11.07;;;1.60;79.20;;;;;;5130007;27;20019;-78
2022/03/07 06:12:54;;;;;;;17.17;11.68;;;1.60;78.50;;;;;;5131482;27;20531;-76
2022/03/07 06:15:20;;;;;;;19.27;11.95;;;1.60;78.60;;;;;;5131534;27;20039;-77
2022/03/07 06:17:57;;;;;;;17.25;11.57;;;1.60;78.70;;;;;;5133335;27;20038;-77
2022/03/07 06:20:24;;;;;;;17.83;12.23;;;1.60;78.40;;;;;;5131289;27;20031;-77
2022/03/07 06:22:51;;;;;;;16.45;10.57;;;1.60;79.30;;;;;;5111230;27;20042;-77
2022/03/07 06:25:16;;;;;;;17.42;11.65;;;1.60;78.60;;;;;;5131461;27;20463;-77
2022/03/07 06:27:42;;;;;;;16.50;11.00;;;1.60;78.90;;;;;;5131237;27;20038;-78
2022/03/07 06:30:08;;;;;;;16.02;10.45;;;1.60;78.80;;;;;;5132252;27;20019;-78
2022/03/07 06:32:38;;;;;;;17.67;9.88;;;1.60;78.80;;;;;;5114161;27;20437;-77
2022/03/07 06:35:05;;;;;;;16.67;10.05;;;1.60;79.00;;;;;;5112050;27;20019;-78
2022/03/07 06:37:31;;;;;;;16.48;10.52;;;1.60;79.10;;;;;;5131023;27;20033;-76
2022/03/07 06:39:57;;;;;;;15.43;9.70;;;1.60;79.10;;;;;;5112629;28;20026;-80
2022/03/07 06:42:23;;;;;;;16.02;10.63;;;1.60;79.00;;;;;;5131106;27;20031;-79
2022/03/07 06:44:48;;;;;;;15.98;10.52;;;1.60;78.90;;;;;;5133061;27;20043;-79
2022/03/07 06:47:16;;;;;;;19.55;11.25;;;1.70;78.90;;;;;;5130155;27;20031;-79
2022/03/07 06:49:42;;;;;;;19.30;12.65;;;1.70;78.70;;;;;;5128764;27;20019;-77
2022/03/07 06:52:08;;;;;;;19.92;12.48;;;1.70;78.80;;;;;;5130264;27;20031;-77
2022/03/07 06:54:34;;;;;;;20.38;13.07;;;1.70;78.80;;;;;;5130547;27;20024;-78
2022/03/07 06:56:59;;;;;;;20.13;12.70;;;1.70;78.90;;;;;;5132516;27;20022;-81
2022/03/07 06:59:25;;;;;;;17.63;12.25;;;1.70;78.80;;;;;;5130432;27;20407;-79
2022/03/07 07:01:51;;;;;;;18.13;11.32;;;1.70;79.00;;;;;;5111969;27;20092;-78
2022/03/07 07:04:18;;;;;;;18.15;11.23;;;1.70;79.00;;;;;;5129595;27;20432;-79
2022/03/07 07:06:43;;;;;;;16.63;10.48;;;1.80;78.70;;;;;;5130193;27;20025;-78
2022/03/07 07:09:09;;;;;;;16.08;9.98;;;1.80;78.80;;;;;;5135731;27;20046;-83
2022/03/07 07:11:36;;;;;;;15.90;9.63;;;1.80;79.10;;;;;;5116270;28;20109;-79
2022/03/07 07:14:02;;;;;;;15.30;10.25;;;1.90;79.30;;;;;;5133574;27;20434;-79
2022/03/07 07:16:27;;;;;;;18.42;12.20;;;1.90;79.20;;;;;;5130575;27;20023;-79
2022/03/07 07:18:53;;;;;;;18.75;11.57;;;2.00;79.00;;;;;;5130236;28;20092;-78
2022/03/07 07:21:19;;;;;;;15.30;10.15;;;2.00;79.10;;;;;;5130859;27;20019;-80
2022/03/07 07:23:44;;;;;;;12.55;9.05;;;2.00;78.90;;;;;;5118838;27;20023;-79
2022/03/07 07:26:10;;;;;;;16.23;10.27;;;2.10;79.40;;;;;;5116427;27;20020;-79
2022/03/07 07:28:36;;;;;;;14.85;10.30;;;2.10;78.90;;;;;;5133326;27;20395;-79
2022/03/07 07:31:01;;;;;;;16.10;10.90;;;2.10;78.70;;;;;;5135096;27;20483;-78
2022/03/07 07:33:27;;;;;;;16.60;11.15;;;2.10;78.60;;;;;;5134694;27;20796;-78
2022/03/07 07:35:53;;;;;;;17.83;11.52;;;2.10;78.30;;;;;;5137034;27;20475;-78
2022/03/07 07:38:19;;;;;;;17.83;11.20;;;2.10;78.90;;;;;;5134786;27;20031;-78
2022/03/07 07:40:45;;;;;;;16.08;9.90;;;2.20;78.60;;;;;;5134304;27;20144;-78
2022/03/07 07:43:10;;;;;;;14.35;9.45;;;2.20;78.70;;;;;;5116096;27;20129;-79
2022/03/07 07:45:36;;;;;;;14.55;8.93;;;2.30;78.70;;;;;;5134711;27;20054;-78
2022/03/07 07:48:02;;;;;;;15.60;9.82;;;2.30;78.70;;;;;;5135908;27;20023;-78
2022/03/07 07:50:28;;;;;;;15.77;10.45;;;2.40;78.50;;;;;;5134822;27;20175;-79
2022/03/07 07:52:56;;;;;;;15.02;9.48;;;2.40;78.20;;;;;;5132385;27;20458;-79
2022/03/07 07:55:24;;;;;;;15.27;9.85;;;2.30;78.20;;;;;;5134231;27;20471;-77
2022/03/07 07:57:50;;;;;;;15.68;9.75;;;2.40;78.30;;;;;;5134352;27;20045;-78
2022/03/07 08:00:19;;;;;;;15.35;10.18;;;2.40;78.40;;;;;;5115450;27;20557;-78
2022/03/07 08:02:46;;;;;;;15.45;9.75;;;2.40;78.20;;;;;;5134091;27;20102;-79
2022/03/07 08:05:12;;;;;;;15.23;10.18;;;2.50;78.50;;;;;;5115368;27;20026;-79
2022/03/07 08:07:39;;;;;;;14.15;10.30;;;2.40;77.90;;;;;;5132905;27;20019;-79
2022/03/07 08:10:05;;;;;;;15.77;9.07;;;2.50;78.30;;;;;;5115898;27;20376;-79
2022/03/07 08:12:32;;;;;;;16.80;10.57;;;2.50;78.30;;;;;;5134713;27;20019;-79
2022/03/07 08:14:58;;;;;;;14.48;9.82;;;2.60;78.20;;;;;;5110523;28;20107;-79
2022/03/07 08:17:23;;;;;;;13.45;9.15;;;2.60;78.30;;;;;;5133643;27;20102;-78
2022/03/07 08:19:49;;;;;;;14.23;9.13;;;2.60;77.80;;;;;;5133688;27;20076;-79
2022/03/07 08:22:15;;;;;;;13.88;9.43;;;2.70;77.90;;;;;;5133763;27;20088;-77
2022/03/07 08:24:40;;;;;;;15.82;10.00;;;2.70;78.30;;;;;;5134249;27;20064;-77
2022/03/07 08:27:06;;;;;;;14.88;9.90;;;2.80;78.30;;;;;;5135463;27;20038;-77
2022/03/07 08:29:31;;;;;;;14.80;9.75;;;2.90;78.20;;;;;;5134673;27;20051;-79
2022/03/07 08:31:57;;;;;;;17.17;10.60;;;2.90;77.60;;;;;;5115135;27;20165;-79
2022/03/07 08:34:23;;;;;;;17.90;11.20;;;2.90;77.40;;;;;;5113975;27;20034;-79
2022/03/07 08:36:48;;;;;;;17.58;10.68;;;2.90;77.30;;;;;;5114763;27;20388;-79
2022/03/07 08:39:14;;;;;;;17.15;11.60;;;2.90;77.50;;;;;;5134029;27;20048;-79
2022/03/07 08:41:40;;;;;;;16.92;11.40;;;3.00;77.70;;;;;;5116707;27;20469;-77
2022/03/07 08:44:05;;;;;;;17.92;11.82;;;3.00;77.40;;;;;;5133331;27;20015;-79
2022/03/07 08:46:31;;;;;;;16.48;10.77;;;3.00;77.10;;;;;;5131819;27;20442;-79
2022/03/07 08:48:57;;;;;;;19.20;12.13;;;3.10;77.20;;;;;;5115147;27;20114;-79
2022/03/07 08:51:22;;;;;;;16.60;10.48;;;3.10;77.20;;;;;;5133719;27;20023;-79
2022/03/07 08:53:48;;;;;;;17.65;11.32;;;3.20;77.50;;;;;;5135940;27;20011;-77
2022/03/07 08:56:14;;;;;;;16.52;11.50;;;3.30;77.40;;;;;;5133387;27;20076;-78
2022/03/07 08:58:40;;;;;;;17.23;10.98;;;3.30;76.80;;;;;;5132904;27;20019;-77
2022/03/07 09:01:06;;;;;;;16.77;10.68;;;3.30;76.80;;;;;;5132781;27;20022;-78
2022/03/07 09:03:31;;;;;;;18.33;11.02;;;3.40;77.10;;;;;;5114621;27;20507;-78
2022/03/07 09:05:57;;;;;;;16.33;11.27;;;3.50;77.20;;;;;;5129325;27;20072;-77
2022/03/07 09:08:23;;;;;;;17.40;11.02;;;3.60;76.70;;;;;;5135200;27;20038;-77
2022/03/07 09:10:48;;;;;;;19.25;12.70;;;3.60;76.40;;;;;;5129439;27;20100;-77
2022/03/07 09:13:14;;;;;;;20.27;13.60;;;3.60;76.40;;;;;;5135566;27;20459;-76
2022/03/07 09:15:42;;;;;;;19.52;11.85;;;3.70;76.00;;;;;;5140376;27;20058;-77
2022/03/07 09:18:07;;;;;;;17.35;10.98;;;3.70;76.20;;;;;;5132734;27;20027;-77
2022/03/07 09:20:33;;;;;;;19.70;12.13;;;3.80;76.30;;;;;;5146733;27;20026;-79
2022/03/07 09:22:59;;;;;;;19.75;12.52;;;3.90;76.10;;;;;;5142956;27;20479;-79
2022/03/07 09:25:24;;;;;;;19.27;11.68;;;4.00;76.20;;;;;;5118302;27;20019;-77
2022/03/07 09:27:50;;;;;;;18.33;11.60;;;4.00;75.80;;;;;;5119715;27;20020;-77
2022/03/07 09:30:16;;;;;;;18.25;11.15;;;4.10;75.40;;;;;;5132194;27;20046;-77
2022/03/07 09:32:42;;;;;;;20.55;13.02;;;4.10;75.20;;;;;;5134307;27;20558;-77
2022/03/07 09:35:09;;;;;;;21.02;13.55;;;4.10;74.50;;;;;;5132381;27;20102;-77
2022/03/07 09:37:34;;;;;;;17.80;11.80;;;4.10;74.60;;;;;;5132087;27;20106;-77
2022/03/07 09:40:00;;;;;;;16.45;11.18;;;4.20;74.50;;;;;;5132233;27;20098;-77
2022/03/07 09:42:26;;;;;;;20.95;13.43;;;4.20;74.00;;;;;;5132282;27;20563;-77
2022/03/07 09:44:54;;;;;;;20.55;12.43;;;4.20;74.10;;;;;;5133604;27;20091;-77
2022/03/07 09:47:22;;;;;;;19.50;12.90;;;4.30;74.30;;;;;;5113828;27;20437;-77
2022/03/07 09:49:50;;;;;;;19.67;12.77;;;4.40;74.00;;;;;;5130233;27;20034;-77
2022/03/07 09:52:16;;;;;;;21.23;12.27;;;4.40;74.00;;;;;;5131692;27;20495;-77
2022/03/07 09:54:41;;;;;;;19.23;12.77;;;4.50;74.10;;;;;;5132094;27;20073;-77
2022/03/07 09:57:07;;;;;;;18.10;11.82;;;4.50;73.70;;;;;;5133547;27;20030;-77
2022/03/07 09:59:34;;;;;;;21.77;12.98;;;4.50;73.50;;;;;;5132392;27;20425;-77
2022/03/07 10:02:12;;;;;;;19.90;12.85;;;4.60;73.60;;;;;;5131718;27;20563;-76
2022/03/07 10:04:45;;;;;;;20.42;12.30;;;4.70;73.40;;;;;;5130228;27;20015;-77
2022/03/07 10:07:12;;;;;;;18.20;12.55;;;4.80;73.10;;;;;;5131760;27;20046;-77
2022/03/07 10:09:38;;;;;;;16.67;10.43;;;4.90;73.20;;;;;;5131844;27;20030;-77
2022/03/07 10:12:05;;;;;;;16.85;10.43;;;4.90;72.70;;;;;;5133381;27;20030;-77
2022/03/07 10:14:47;;;;;;;21.17;13.15;;;5.00;72.90;;;;;;5114776;27;20029;-77
2022/03/07 10:17:21;;;;;;;16.02;11.13;;;5.00;72.90;;;;;;5113019;27;20031;-77
2022/03/07 10:19:47;;;;;;;18.52;11.43;;;5.10;72.60;;;;;;5136852;27;20183;-77
2022/03/07 10:22:22;;;;;;;20.92;12.63;;;5.00;71.60;;;;;;5131629;27;20041;-77
2022/03/07 10:25:15;;;;;;;18.85;12.43;;;4.90;71.50;;;;;;5131359;27;20019;-77
2022/03/07 10:27:44;;;;;;;18.92;12.60;;;5.00;72.20;;;;;;5115159;27;20038;-77
2022/03/07 10:30:15;;;;;;;20.50;13.45;;;5.10;71.40;;;;;;5132517;27;20011;-77
2022/03/07 10:32:42;;;;;;;21.27;12.88;;;5.10;71.70;;;;;;5133496;27;20011;-77
2022/03/07 10:35:20;;;;;;;17.65;12.32;;;5.20;71.60;;;;;;5129267;27;20477;-77
2022/03/07 10:37:45;;;;;;;16.45;11.38;;;5.20;71.80;;;;;;5125680;27;20120;-78
2022/03/07 10:40:20;;;;;;;19.25;13.77;;;5.20;71.20;;;;;;5131313;27;20529;-78
2022/03/07 10:42:47;;;;;;;20.30;11.63;;;5.20;71.20;;;;;;5129476;27;20035;-78
2022/03/07 10:45:13;;;;;;;18.13;11.82;;;5.30;71.50;;;;;;5131877;27;20084;-78
2022/03/07 10:47:39;;;;;;;20.00;12.82;;;5.30;71.40;;;;;;5114115;27;20047;-78
2022/03/07 10:50:06;;;;;;;17.23;11.13;;;5.40;71.80;;;;;;5130679;27;20017;-78
2022/03/07 10:52:36;;;;;;;18.65;11.65;;;5.50;71.50;;;;;;5130614;27;20111;-77
2022/03/07 10:55:04;;;;;;;17.27;11.82;;;5.60;70.50;;;;;;5130765;27;20027;-78
2022/03/07 10:57:35;;;;;;;19.67;12.02;;;5.60;70.90;;;;;;5095175;27;20024;-77
2022/03/07 11:00:14;;;;;;;16.52;11.07;;;5.70;70.80;;;;;;5143180;27;20031;-77
2022/03/07 11:02:42;;;;;;;17.42;11.43;;;5.70;71.00;;;;;;5132559;27;20126;-77
2022/03/07 11:05:09;;;;;;;22.30;13.73;;;5.70;70.40;;;;;;5130112;27;20019;-79
2022/03/07 11:07:38;;;;;;;19.17;12.38;;;5.80;70.30;;;;;;5130115;27;20019;-77
2022/03/07 11:10:08;;;;;;;19.35;12.07;;;5.80;70.30;;;;;;5130363;27;20094;-78
2022/03/07 11:12:35;;;;;;;17.23;12.25;;;5.90;70.50;;;;;;5103900;28;20031;-77
2022/03/07 11:15:08;;;;;;;18.52;12.82;;;6.00;70.30;;;;;;5131650;28;20016;-78
2022/03/07 11:17:40;;;;;;;19.05;12.02;;;6.00;70.50;;;;;;5130794;27;20023;-79
2022/03/07 11:20:08;;;;;;;18.30;12.20;;;6.00;69.60;;;;;;5136843;27;20071;-77
2022/03/07 11:22:35;;;;;;;19.60;11.77;;;6.00;67.00;;;;;;5137516;27;20081;-76
2022/03/07 11:25:02;;;;;;;15.80;10.40;;;6.10;68.70;;;;;;5111407;28;20019;-78
2022/03/07 11:27:29;;;;;;;20.63;12.27;;;6.10;68.20;;;;;;5130338;27;20843;-79
2022/03/07 11:29:55;;;;;;;19.38;12.82;;;6.10;69.20;;;;;;5117740;28;20387;-76
2022/03/07 11:32:21;;;;;;;17.20;11.50;;;6.20;68.40;;;;;;5129148;27;20077;-76
2022/03/07 11:34:59;;;;;;;14.77;9.57;;;6.20;67.20;;;;;;5130035;28;20049;-77
2022/03/07 11:37:32;;;;;;;18.60;12.02;;;6.30;67.50;;;;;;5111278;28;20028;-77
2022/03/07 11:40:01;;;;;;;15.60;11.38;;;6.40;66.10;;;;;;5130239;27;20027;-77
2022/03/07 11:42:38;;;;;;;15.32;10.05;;;6.50;67.60;;;;;;5111803;28;20503;-75
2022/03/07 11:45:23;;;;;;;16.67;11.32;;;6.60;67.50;;;;;;5127953;27;20078;-77
2022/03/07 11:47:50;;;;;;;17.17;10.73;;;6.70;68.30;;;;;;5129224;27;20019;-77
2022/03/07 11:50:20;;;;;;;16.38;11.77;;;6.80;65.70;;;;;;5129231;27;20027;-77
2022/03/07 11:52:46;;;;;;;16.27;11.98;;;6.80;66.20;;;;;;5129991;28;20027;-77
2022/03/07 11:55:16;;;;;;;16.55;11.43;;;6.90;64.80;;;;;;5129774;27;20499;-76
2022/03/07 11:57:45;;;;;;;16.55;11.43;;;7.00;64.60;;;;;;5130374;28;20015;-78
2022/03/07 12:00:20;;;;;;;15.95;11.23;;;7.00;63.60;;;;;;5103926;27;20027;-77
2022/03/07 12:02:59;;;;;;;16.05;10.98;;;7.00;61.60;;;;;;5130088;27;20043;-77
2022/03/07 12:05:33;;;;;;;13.85;10.27;;;7.10;64.10;;;;;;5128394;27;20433;-79
2022/03/07 12:08:16;;;;;;;15.40;11.52;;;7.20;63.20;;;;;;5130882;27;20034;-79
2022/03/07 12:11:23;;;;;;;20.02;12.80;;;7.30;61.50;;;;;;5131686;27;20491;-79
2022/03/07 12:13:50;;;;;;;17.00;12.32;;;7.20;61.50;;;;;;5104330;27;20039;-79
2022/03/07 12:16:27;;;;;;;15.45;11.10;;;7.20;62.10;;;;;;5129981;27;20023;-78
2022/03/07 12:19:10;;;;;;;16.88;11.15;;;7.40;62.50;;;;;;5130790;27;20115;-79
2022/03/07 12:21:37;;;;;;;16.90;10.70;;;7.50;60.30;;;;;;5109365;27;20039;-79
2022/03/07 12:24:05;;;;;;;15.88;11.23;;;7.60;61.00;;;;;;5112003;27;20035;-78
2022/03/07 12:26:31;;;;;;;15.20;10.95;;;7.50;60.70;;;;;;5130386;27;20072;-78
2022/03/07 12:28:56;;;;;;;14.10;10.40;;;7.60;60.20;;;;;;5129130;27;20031;-78
2022/03/07 12:31:22;;;;;;;12.07;9.63;;;7.50;59.00;;;;;;5110743;27;20114;-79
2022/03/07 12:33:48;;;;;;;13.10;9.77;;;7.60;59.40;;;;;;5110610;27;20538;-79
2022/03/07 12:36:15;;;;;;;13.63;10.25;;;7.60;58.40;;;;;;5129708;27;20021;-79
2022/03/07 12:38:50;;;;;;;13.38;9.93;;;7.60;57.20;;;;;;5130669;27;20031;-79